• Join FlightAware (Why Join?)
  • Login
  • US Flag 
05:06AM EDT


 

Airport Tracker/Info


-or-


 

Live Flight TrackerFlight Track Log ✈ AWE2690 ✈ 07-Sep-2013 ✈ KCLT - KIND

Flight Track Log - Related Links

Times and Time Zones

All times are in EDT time to prevent confusion due to time zone crossing. See the AWE2690 flight status page for this flight to view local times or setup timezone preferences in your user account.

Time Position Orientation Groundspeed Altitude Reporting Facility
EDT Latitude Longitude Course Direction KTS MPH feet Rate Location/Type
01:39PM 35.1850 -80.9511 52° Northeast 182 209 1,600  Level Atlanta Center
01:40PM 35.1517 -80.9525 182° South 201 231 2,400 1,860 Climbing Atlanta Center
01:41PM 35.0964 -80.9925 211° Southwest 271 312 4,700 2,400 Climbing Atlanta Center
01:42PM 35.2493 -81.2167 North  Level FlightAware Approximate
01:42PM 35.0928 -81.1044 268° West 289 333 7,800  Level Atlanta Center
01:43PM 35.3139 -81.1188 52° Northeast  Level FlightAware Approximate
01:43PM 35.1542 -81.1428 333° Northwest 266 306 10,300  Level Atlanta Center
01:44PM 35.3822 -81.0114 52° Northeast  Level FlightAware Approximate
01:44PM 35.2322 -81.0969 26° Northeast 220 253 11,800  Level Atlanta Center
01:45PM 35.3222 -81.1039 356° North 292 336 14,000 1,860 Climbing Atlanta Center
01:46PM 35.4083 -81.1236 349° North 324 373 15,600 1,560 Climbing Atlanta Center
01:47PM 35.4972 -81.1767 334° Northwest 344 396 17,200 1,620 Climbing Atlanta Center
01:48PM 35.5864 -81.2425 329° Northwest 358 412 18,900 1,680 Climbing Atlanta Center
01:49PM 35.6861 -81.3183 328° Northwest 395 455 20,600 1,560 Climbing Atlanta Center
01:50PM 35.7750 -81.3869 328° Northwest 395 455 22,100 1,500 Climbing Atlanta Center
01:51PM 35.8664 -81.4583 328° Northwest 395 455 23,700 1,440 Climbing Atlanta Center
01:52PM 35.9517 -81.5428 321° Northwest 400 460 25,000 1,080 Climbing Atlanta Center
01:53PM 36.0225 -81.6561 308° West 394 453 25,900 1,020 Climbing Atlanta Center
01:54PM 36.0914 -81.7569 310° West 418 481 27,100 1,020 Climbing Atlanta Center
01:55PM 36.1664 -81.8681 310° West 424 488 28,000 1,080 Climbing Atlanta Center
01:56PM 36.2497 -81.9919 310° West 434 499 29,300 1,200 Climbing Atlanta Center
01:58PM 36.3814 -82.1844 310° West 438 504 31,300 1,080 Climbing Indianapolis Center
01:59PM 36.4586 -82.2994 310° West 433 498 32,300 960 Climbing Indianapolis Center
02:00PM 36.5347 -82.4139 310° West 430 495 33,300 780 Climbing Indianapolis Center
02:01PM 36.6125 -82.5292 310° West 433 498 34,000 300 Climbing Indianapolis Center
02:02PM 36.6908 -82.6469 310° West 439 505 34,000  Level Indianapolis Center
02:03PM 36.7725 -82.7711 309° West 453 521 34,000  Level Indianapolis Center
02:04PM 36.8581 -82.9003 310° West 460 529 34,000  Level Indianapolis Center
02:05PM 36.9472 -83.0347 310° West 470 541 34,000  Level Indianapolis Center
02:06PM 37.0325 -83.1647 309° West 479 551 34,000  Level Indianapolis Center
02:07PM 37.1294 -83.3133 309° West 471 542 34,000  Level Indianapolis Center
02:08PM 37.2128 -83.4411 309° West 471 542 34,000  Level Indianapolis Center
02:09PM 37.2958 -83.5692 309° West 472 543 34,000  Level Indianapolis Center
02:10PM 37.3783 -83.6969 309° West 470 541 34,000  Level Indianapolis Center
02:11PM 37.4603 -83.8267 309° West 472 543 34,000  Level Indianapolis Center
02:12PM 37.5428 -83.9547 309° West 469 540 34,000  Level Indianapolis Center
02:13PM 37.6256 -84.0836 309° West 473 544 34,000  Level Indianapolis Center
02:14PM 37.7144 -84.2011 314° West 464 534 34,000  Level Indianapolis Center
02:15PM 37.8128 -84.3081 319° Northwest 465 535 34,000  Level Indianapolis Center
02:16PM 37.9281 -84.4344 319° Northwest 466 536 34,000  Level Indianapolis Center
02:17PM 38.0261 -84.5419 319° Northwest 466 536 34,000 -780 Level Indianapolis Center
02:18PM 38.1256 -84.6489 320° Northwest 467 537 32,500 -1,620 Descending Indianapolis Center
02:19PM 38.2231 -84.7569 319° Northwest 465 535 30,700 -1,800 Descending Indianapolis Center
02:20PM 38.3206 -84.8633 319° Northwest 462 532 28,900 -1,860 Descending Indianapolis Center
02:21PM 38.4161 -84.9697 319° Northwest 458 527 27,000 -1,860 Descending Indianapolis Center
02:22PM 38.5114 -85.0756 319° Northwest 454 522 25,100 -1,500 Descending Indianapolis Center
02:23PM 38.6047 -85.1786 319° Northwest 441 507 24,000 -540 Descending Indianapolis Center
02:24PM 38.7036 -85.2914 318° Northwest 434 499 24,000 -840 Level Indianapolis Center
02:25PM 38.7953 -85.3914 320° Northwest 432 497 22,300 -2,220 Descending Indianapolis Center
02:26PM 38.8831 -85.4931 318° Northwest 430 495 19,600 -2,640 Descending Indianapolis Center
02:27PM 38.9686 -85.5878 319° Northwest 416 479 17,000 -2,580 Descending Indianapolis Center
02:28PM 39.0483 -85.6803 318° Northwest 396 456 14,300 -1,500 Descending Indianapolis Center
02:29PM 39.1364 -85.7336 335° Northwest 365 420 14,000 -180 Descending Indianapolis Center
02:30PM 39.2528 -85.7542 352° North 355 409 14,000 -60 Level Indianapolis Center
02:31PM 39.3422 -85.8022 337° Northwest 353 406 13,900 -1,020 Descending Indianapolis Center
02:32PM 39.4117 -85.8839 318° Northwest 339 390 12,000 -1,860 Descending Indianapolis Center
02:33PM 39.4711 -85.9547 317° Northwest 300 345 10,200 -1,800 Descending Indianapolis Center
02:34PM 39.5278 -86.0225 317° Northwest 283 326 8,400 -1,620 Descending Indianapolis Center
02:35PM 39.5819 -86.0869 317° Northwest 270 311 7,000 -840 Descending Indianapolis Center
02:37PM 39.6400 -86.1433 323° Northwest 266 306 6,800 -1,020 Descending Indianapolis Center
02:38PM 39.7214 -86.1228 11° North 259 298 5,000 -900 Descending Indianapolis Center
02:39PM 39.7747 -86.0736 35° Northeast 249 287 5,000 -60 Level Indianapolis Center
02:40PM 39.8253 -86.0661 North 233 268 4,900 -1,080 Descending Indianapolis Center
02:41PM 39.8197 -86.1392 264° West 217 250 2,800 -1,080 Descending Indianapolis Center
02:42PM 39.7869 -86.1956 233° Southwest 203 234 2,700 -540 Descending Indianapolis Center
02:43PM 39.7503 -86.2397 223° Southwest 190 219 1,700 -840 Descending Indianapolis Center
02:44PM 39.7231 -86.2753 225° Southwest 155 178 1,000 -480 Descending Indianapolis Center
02:45PM 39.7067 -86.2967 225° Southwest 103 119 800 -120 Descending Indianapolis Center
02:46PM 39.7119 -86.2939 22° Northeast 43 49 800  Level Indianapolis Center
02:47PM 39.7167 -86.2911 24° Northeast 27 31 800  Level Indianapolis Center
02:48PM 39.7181 -86.2953 293° West 19 22 800  Level Indianapolis Center
02:49PM 39.7147 -86.3000 227° Southwest 18 21 800  Level Indianapolis Center